Time;durP1;ratioP1;P1;durP2;ratioP2;P2;SDS_P1;SDS_P2;PMS_P1;PMS_P2;Temp;Humidity;BMP_temperature;BMP_pressure;BME280_temperature;BME280_humidity;BME280_pressure;Samples;Min_cycle;Max_cycle;Signal;HPM_P1;HPM_P2
2022/01/02 00:00:48;;;;;;;;;;;;;;;;;;5136800;27;19923;-77
2022/01/02 00:03:13;;;;;;;;;;;;;;;;;;5136790;27;19922;-78
2022/01/02 00:05:39;;;;;;;;;;;;;;;;;;5136780;27;19916;-78
2022/01/02 00:08:08;;;;;;;;;;;;;;;;;;5143781;27;19915;-80
2022/01/02 00:10:42;;;;;;;;;;;;;;;;;;5138458;27;20317;-78
2022/01/02 00:13:08;;;;;;;;;;;;;;;;;;5137935;27;19988;-77
2022/01/02 00:15:33;;;;;;;;;;;;;;;;;;5137819;27;20336;-77
2022/01/02 00:18:07;;;;;;;;;;;;;;;;;;5136747;27;20387;-77
2022/01/02 00:20:32;;;;;;;;;;;;;;;;;;5136583;27;19944;-77
2022/01/02 00:23:08;;;;;;;;;;;;;;;;;;5136665;27;19997;-77
2022/01/02 00:25:37;;;;;;;;;;;;;;;;;;5137537;27;19985;-78
2022/01/02 00:28:03;;;;;;;;;;;;;;;;;;5136437;27;19915;-77
2022/01/02 00:30:29;;;;;;;;;;;;;;;;;;5142490;27;19981;-77
2022/01/02 00:32:55;;;;;;;;;;;;;;;;;;5138146;27;19959;-78
2022/01/02 00:35:21;;;;;;;;;;;;;;;;;;5136168;27;20019;-77
2022/01/02 00:37:46;;;;;;;;;;;;;;;;;;5119235;27;20321;-77
2022/01/02 00:40:13;;;;;;;;;;;;;;;;;;5137351;27;19915;-77
2022/01/02 00:42:39;;;;;;;;;;;;;;;;;;5118708;27;19968;-78
2022/01/02 00:45:06;;;;;;;;;;;;;;;;;;5135918;27;19916;-77
2022/01/02 00:47:51;;;;;;;;;;;;;;;;;;5137409;27;19915;-77
2022/01/02 00:50:20;;;;;;;;;;;;;;;;;;5135412;27;19916;-77
2022/01/02 00:52:49;;;;;;;;;;;;;;;;;;5144227;27;19919;-78
2022/01/02 00:55:15;;;;;;;;;;;;;;;;;;5136306;27;19922;-77
2022/01/02 00:57:41;;;;;;;;;;;;;;;;;;5135107;27;20002;-77
2022/01/02 01:00:07;;;;;;;;;;;;;;;;;;5135792;27;20252;-77
2022/01/02 01:02:40;;;;;;;;;;;;;;;;;;5136579;27;19919;-78
2022/01/02 01:05:06;;;;;;;;;;;;;;;;;;5135554;27;19915;-77
2022/01/02 01:07:31;;;;;;;;;;;;;;;;;;5137033;27;19915;-77
2022/01/02 01:09:57;;;;;;;;;;;;;;;;;;5135262;27;19922;-77
2022/01/02 01:12:23;;;;;;;;;;;;;;;;;;5118252;27;19916;-78
2022/01/02 01:14:49;;;;;;;;;;;;;;;;;;5141583;27;19963;-78
2022/01/02 01:17:15;;;;;;;;;;;;;;;;;;5138116;27;20322;-77
2022/01/02 01:19:40;;;;;;;;;;;;;;;;;;5135465;27;19958;-77
2022/01/02 01:22:06;;;;;;;;;;;;;;;;;;5136507;27;19915;-78
2022/01/02 01:24:34;;;;;;;;;;;;;;;;;;5136143;27;20007;-77
2022/01/02 01:27:01;;;;;;;;;;;;;;;;;;5136270;27;20287;-78
2022/01/02 01:29:26;;;;;;;;;;;;;;;;;;5118387;27;19916;-77
2022/01/02 01:31:51;;;;;;;;;;;;;;;;;;5135334;27;19972;-77
2022/01/02 01:34:17;;;;;;;;;;;;;;;;;;5135501;27;19911;-78
2022/01/02 01:36:42;;;;;;;;;;;;;;;;;;5144021;27;19903;-78
2022/01/02 01:39:07;;;;;;;;;;;;;;;;;;5140508;27;19919;-77
2022/01/02 01:41:35;;;;;;;;;;;;;;;;;;5135185;27;20305;-77
2022/01/02 01:46:38;;;;;;;;;;;;;;;;;;5135520;27;19946;-77
2022/01/02 01:49:16;;;;;;;;;;;;;;;;;;5134818;27;20014;-78
2022/01/02 01:51:42;;;;;;;;;;;;;;;;;;5134615;27;19912;-78
2022/01/02 01:54:07;;;;;;;;;;;;;;;;;;5135724;27;19922;-78
2022/01/02 01:56:32;;;;;;;;;;;;;;;;;;5134857;27;19918;-77
2022/01/02 01:58:58;;;;;;;;;;;;;;;;;;5140294;27;19915;-77
2022/01/02 02:01:23;;;;;;;;;;;;;;;;;;5137379;27;19959;-78
2022/01/02 02:03:48;;;;;;;;;;;;;;;;;;5136498;27;19916;-78
2022/01/02 02:06:14;;;;;;;;;;;;;;;;;;5134957;28;20226;-78
2022/01/02 02:08:39;;;;;;;;;;;;;;;;;;5140080;27;19965;-77
2022/01/02 02:11:04;;;;;;;;;;;;;;;;;;5142805;27;20345;-78
2022/01/02 02:13:30;;;;;;;;;;;;;;;;;;5141514;27;19915;-77
2022/01/02 02:15:55;;;;;;;;;;;;;;;;;;5142660;27;19968;-77
2022/01/02 02:18:21;;;;;;;;;;;;;;;;;;5141447;27;19959;-77
2022/01/02 02:20:46;;;;;;;;;;;;;;;;;;5145226;27;19915;-77
2022/01/02 02:23:12;;;;;;;;;;;;;;;;;;5145148;27;20239;-77
2022/01/02 02:25:37;;;;;;;;;;;;;;;;;;5141295;27;20334;-77
2022/01/02 02:28:04;;;;;;;;;;;;;;;;;;5142530;27;20550;-77
2022/01/02 02:30:31;;;;;;;;;;;;;;;;;;5141550;27;20016;-77
2022/01/02 02:32:56;;;;;;;;;;;;;;;;;;5142782;27;20321;-77
2022/01/02 02:35:22;;;;;;;;;;;;;;;;;;5142780;27;19915;-77
2022/01/02 02:37:47;;;;;;;;;;;;;;;;;;5142201;27;19929;-77
2022/01/02 02:40:17;;;;;;;;;;;;;;;;;;5143222;27;19922;-78
2022/01/02 02:51:01;;;;;;;;;;;;;;;;;;5133691;27;20392;-78
2022/01/02 02:53:27;;;;;;;;;;;;;;;;;;5141383;27;19947;-77
2022/01/02 02:55:56;;;;;;;;;;;;;;;;;;5141101;27;19938;-77
2022/01/02 02:58:55;;;;;;;;;;;;;;;;;;5141297;27;19963;-77
2022/01/02 03:01:14;;;;;;;;;;;;;;;;;;5140827;27;20364;-78
2022/01/02 03:03:40;;;;;;;;;;;;;;;;;;5147700;27;19915;-79
2022/01/02 03:06:05;;;;;;;;;;;;;;;;;;5143060;27;19945;-78
2022/01/02 03:08:31;;;;;;;;;;;;;;;;;;5123765;27;20225;-78
2022/01/02 03:10:56;;;;;;;;;;;;;;;;;;5140694;27;19927;-77
2022/01/02 03:13:22;;;;;;;;;;;;;;;;;;5141820;27;20009;-77
2022/01/02 03:15:47;;;;;;;;;;;;;;;;;;5140673;27;20835;-77
2022/01/02 03:18:13;;;;;;;;;;;;;;;;;;5140874;27;20006;-78
2022/01/02 03:20:38;;;;;;;;;;;;;;;;;;5137170;27;19919;-77
2022/01/02 03:23:03;;;;;;;;;;;;;;;;;;5138577;27;20378;-78
2022/01/02 03:25:29;;;;;;;;;;;;;;;;;;5124739;27;20314;-78
2022/01/02 03:27:54;;;;;;;;;;;;;;;;;;5140895;27;19922;-78
2022/01/02 03:30:19;;;;;;;;;;;;;;;;;;5137657;27;19915;-78
2022/01/02 03:32:45;;;;;;;;;;;;;;;;;;5137011;27;19919;-76
2022/01/02 03:35:10;;;;;;;;;;;;;;;;;;5136814;27;20305;-76
2022/01/02 03:37:35;;;;;;;;;;;;;;;;;;5137122;27;20313;-78
2022/01/02 03:40:01;;;;;;;;;;;;;;;;;;5138332;27;19915;-77
2022/01/02 03:42:26;;;;;;;;;;;;;;;;;;5137136;27;20004;-78
2022/01/02 03:44:52;;;;;;;;;;;;;;;;;;5137116;27;20248;-77
2022/01/02 03:47:17;;;;;;;;;;;;;;;;;;5139574;27;19963;-78
2022/01/02 03:49:44;;;;;;;;;;;;;;;;;;5123249;27;19927;-77
2022/01/02 03:52:09;;;;;;;;;;;;;;;;;;5136826;27;20309;-78
2022/01/02 03:54:35;;;;;;;;;;;;;;;;;;5136831;27;19923;-77
2022/01/02 03:57:00;;;;;;;;;;;;;;;;;;5137252;27;20232;-77
2022/01/02 03:59:26;;;;;;;;;;;;;;;;;;5136650;27;20264;-78
2022/01/02 04:01:51;;;;;;;;;;;;;;;;;;5137821;27;19919;-77
2022/01/02 04:04:17;;;;;;;;;;;;;;;;;;5136346;27;20260;-77
2022/01/02 04:06:42;;;;;;;;;;;;;;;;;;5136421;27;19968;-76
2022/01/02 04:09:07;;;;;;;;;;;;;;;;;;5137936;27;19920;-79
2022/01/02 04:11:33;;;;;;;;;;;;;;;;;;5126124;27;19998;-77
2022/01/02 04:13:58;;;;;;;;;;;;;;;;;;5136573;27;19923;-77
2022/01/02 04:16:23;;;;;;;;;;;;;;;;;;5136600;27;19915;-78
2022/01/02 04:18:50;;;;;;;;;;;;;;;;;;5137442;27;19916;-78
2022/01/02 04:21:15;;;;;;;;;;;;;;;;;;5137979;27;19915;-77
2022/01/02 04:23:41;;;;;;;;;;;;;;;;;;5136146;27;20252;-77
2022/01/02 04:26:06;;;;;;;;;;;;;;;;;;5137538;27;19915;-77
2022/01/02 04:28:31;;;;;;;;;;;;;;;;;;5136324;27;19923;-77
2022/01/02 04:30:57;;;;;;;;;;;;;;;;;;5135216;27;19930;-77
2022/01/02 04:33:22;;;;;;;;;;;;;;;;;;5143464;27;19916;-77
2022/01/02 04:35:47;;;;;;;;;;;;;;;;;;5137207;27;20349;-78
2022/01/02 04:38:14;;;;;;;;;;;;;;;;;;5136959;27;19916;-77
2022/01/02 04:40:40;;;;;;;;;;;;;;;;;;5135851;27;19916;-77
2022/01/02 04:43:05;;;;;;;;;;;;;;;;;;5136894;27;19919;-77
2022/01/02 04:45:31;;;;;;;;;;;;;;;;;;5135684;27;19972;-78
2022/01/02 04:47:56;;;;;;;;;;;;;;;;;;5135350;27;19915;-78
2022/01/02 04:50:21;;;;;;;;;;;;;;;;;;5135594;27;19915;-78
2022/01/02 04:52:47;;;;;;;;;;;;;;;;;;5136769;27;19915;-78
2022/01/02 04:55:12;;;;;;;;;;;;;;;;;;5144884;27;20657;-79
2022/01/02 04:57:37;;;;;;;;;;;;;;;;;;5136996;27;20245;-79
2022/01/02 05:00:04;;;;;;;;;;;;;;;;;;5135758;27;19922;-78
2022/01/02 05:02:29;;;;;;;;;;;;;;;;;;5135130;27;19976;-78
2022/01/02 05:04:54;;;;;;;;;;;;;;;;;;5136634;27;19916;-77
2022/01/02 05:07:20;;;;;;;;;;;;;;;;;;5135298;27;19916;-77
2022/01/02 05:09:45;;;;;;;;;;;;;;;;;;5136349;27;19916;-78
2022/01/02 05:12:11;;;;;;;;;;;;;;;;;;5143492;27;19915;-79
2022/01/02 05:14:36;;;;;;;;;;;;;;;;;;5141363;27;19915;-78
2022/01/02 05:17:02;;;;;;;;;;;;;;;;;;5142463;27;19915;-76
2022/01/02 05:19:27;;;;;;;;;;;;;;;;;;5148988;27;19916;-77
2022/01/02 05:21:53;;;;;;;;;;;;;;;;;;5147565;27;19922;-77
2022/01/02 05:24:18;;;;;;;;;;;;;;;;;;5137089;27;19937;-77
2022/01/02 05:26:43;;;;;;;;;;;;;;;;;;5117587;27;19965;-77
2022/01/02 05:29:09;;;;;;;;;;;;;;;;;;5134992;27;19916;-76
2022/01/02 05:31:34;;;;;;;;;;;;;;;;;;5134656;27;20329;-76
2022/01/02 05:33:59;;;;;;;;;;;;;;;;;;5135231;27;19954;-77
2022/01/02 05:36:25;;;;;;;;;;;;;;;;;;5136240;27;19923;-78
2022/01/02 05:38:51;;;;;;;;;;;;;;;;;;5139119;27;19915;-77
2022/01/02 05:41:16;;;;;;;;;;;;;;;;;;5139501;27;19915;-77
2022/01/02 05:43:41;;;;;;;;;;;;;;;;;;5134410;27;20051;-76
2022/01/02 05:46:07;;;;;;;;;;;;;;;;;;5134559;27;19944;-77
2022/01/02 05:48:33;;;;;;;;;;;;;;;;;;5135779;27;19915;-76
2022/01/02 05:50:59;;;;;;;;;;;;;;;;;;5135874;27;19915;-76
2022/01/02 05:53:25;;;;;;;;;;;;;;;;;;5134627;27;19964;-77
2022/01/02 05:55:50;;;;;;;;;;;;;;;;;;5135943;27;19922;-76
2022/01/02 05:58:16;;;;;;;;;;;;;;;;;;5135683;27;19916;-77
2022/01/02 06:00:41;;;;;;;;;;;;;;;;;;5135439;27;20016;-78
2022/01/02 06:03:06;;;;;;;;;;;;;;;;;;5140314;27;19919;-77
2022/01/02 06:05:32;;;;;;;;;;;;;;;;;;5135553;27;19916;-76
2022/01/02 06:07:57;;;;;;;;;;;;;;;;;;5134404;28;19947;-76
2022/01/02 06:10:22;;;;;;;;;;;;;;;;;;5135577;27;20363;-77
2022/01/02 06:12:48;;;;;;;;;;;;;;;;;;5135774;27;19911;-77
2022/01/02 06:15:13;;;;;;;;;;;;;;;;;;5134287;28;19915;-78
2022/01/02 06:17:38;;;;;;;;;;;;;;;;;;5135560;27;19923;-76
2022/01/02 06:20:04;;;;;;;;;;;;;;;;;;5135596;27;19912;-76
2022/01/02 06:22:29;;;;;;;;;;;;;;;;;;5134403;28;19988;-76
2022/01/02 06:24:55;;;;;;;;;;;;;;;;;;5143893;27;20233;-75
2022/01/02 06:27:20;;;;;;;;;;;;;;;;;;5117249;28;20013;-76
2022/01/02 06:29:45;;;;;;;;;;;;;;;;;;5134192;28;19947;-76
2022/01/02 06:32:11;;;;;;;;;;;;;;;;;;5134267;28;19916;-76
2022/01/02 06:34:36;;;;;;;;;;;;;;;;;;5134066;28;20332;-76
2022/01/02 06:37:01;;;;;;;;;;;;;;;;;;5134733;28;19922;-77
2022/01/02 06:39:27;;;;;;;;;;;;;;;;;;5135237;27;19922;-76
2022/01/02 06:41:52;;;;;;;;;;;;;;;;;;5134259;28;19938;-77
2022/01/02 06:44:18;;;;;;;;;;;;;;;;;;5135053;27;20006;-76
2022/01/02 06:46:43;;;;;;;;;;;;;;;;;;5141651;28;19994;-77
2022/01/02 06:49:08;;;;;;;;;;;;;;;;;;5135651;27;19915;-77
2022/01/02 06:51:34;;;;;;;;;;;;;;;;;;5135194;27;19919;-77
2022/01/02 06:53:59;;;;;;;;;;;;;;;;;;5134060;27;19916;-76
2022/01/02 06:56:24;;;;;;;;;;;;;;;;;;5137590;27;19926;-78
2022/01/02 06:58:50;;;;;;;;;;;;;;;;;;5120295;27;19917;-77
2022/01/02 07:01:15;;;;;;;;;;;;;;;;;;5137604;27;20002;-77
2022/01/02 07:03:40;;;;;;;;;;;;;;;;;;5138933;27;19916;-76
2022/01/02 07:06:06;;;;;;;;;;;;;;;;;;5138761;27;19915;-76
2022/01/02 07:08:31;;;;;;;;;;;;;;;;;;5144419;27;19916;-76
2022/01/02 07:10:56;;;;;;;;;;;;;;;;;;5138441;27;19998;-77
2022/01/02 07:13:22;;;;;;;;;;;;;;;;;;5137244;27;20325;-77
2022/01/02 07:15:47;;;;;;;;;;;;;;;;;;5137619;27;19971;-76
2022/01/02 07:18:12;;;;;;;;;;;;;;;;;;5137616;27;19911;-77
2022/01/02 07:20:38;;;;;;;;;;;;;;;;;;5137554;27;19923;-79
2022/01/02 07:23:03;;;;;;;;;;;;;;;;;;5137900;27;19923;-78
2022/01/02 07:25:28;;;;;;;;;;;;;;;;;;5120256;27;20325;-77
2022/01/02 07:27:54;;;;;;;;;;;;;;;;;;5137135;27;19915;-77
2022/01/02 07:30:19;;;;;;;;;;;;;;;;;;5141990;27;20002;-77
2022/01/02 07:32:45;;;;;;;;;;;;;;;;;;5140985;27;19959;-76
2022/01/02 07:35:10;;;;;;;;;;;;;;;;;;5137155;27;19915;-77
2022/01/02 07:37:36;;;;;;;;;;;;;;;;;;5137056;27;19912;-77
2022/01/02 07:40:02;;;;;;;;;;;;;;;;;;5137172;27;20351;-77
2022/01/02 07:42:27;;;;;;;;;;;;;;;;;;5136946;27;20248;-77
2022/01/02 07:44:52;;;;;;;;;;;;;;;;;;5137144;27;19960;-76
2022/01/02 07:47:18;;;;;;;;;;;;;;;;;;5136865;27;19923;-77
2022/01/02 07:49:43;;;;;;;;;;;;;;;;;;5137135;27;19916;-77
2022/01/02 07:52:08;;;;;;;;;;;;;;;;;;5138757;27;19915;-78
2022/01/02 07:54:34;;;;;;;;;;;;;;;;;;5142299;27;19960;-77
2022/01/02 07:56:59;;;;;;;;;;;;;;;;;;5136677;27;19915;-77
2022/01/02 07:59:24;;;;;;;;;;;;;;;;;;5136614;27;20260;-78
2022/01/02 08:01:50;;;;;;;;;;;;;;;;;;5136643;27;19970;-78
2022/01/02 08:04:15;;;;;;;;;;;;;;;;;;5136894;27;19977;-77
2022/01/02 08:06:41;;;;;;;;;;;;;;;;;;5136364;27;20350;-78
2022/01/02 08:09:06;;;;;;;;;;;;;;;;;;5137658;27;19915;-77
2022/01/02 08:11:31;;;;;;;;;;;;;;;;;;5136060;27;20332;-77
2022/01/02 08:13:57;;;;;;;;;;;;;;;;;;5137699;27;19958;-77
2022/01/02 08:16:22;;;;;;;;;;;;;;;;;;5146693;27;19942;-77
2022/01/02 08:18:47;;;;;;;;;;;;;;;;;;5131741;27;19934;-77
2022/01/02 08:21:13;;;;;;;;;;;;;;;;;;5127715;27;19916;-79
2022/01/02 08:23:38;;;;;;;;;;;;;;;;;;5137558;27;19923;-77
2022/01/02 08:26:04;;;;;;;;;;;;;;;;;;5118846;27;19972;-77
2022/01/02 08:28:29;;;;;;;;;;;;;;;;;;5135311;27;19920;-78
2022/01/02 08:30:55;;;;;;;;;;;;;;;;;;5136561;27;20268;-78
2022/01/02 08:33:20;;;;;;;;;;;;;;;;;;5136211;27;20019;-77
2022/01/02 08:35:46;;;;;;;;;;;;;;;;;;5136608;27;20006;-78
2022/01/02 08:38:11;;;;;;;;;;;;;;;;;;5150132;27;19925;-78
2022/01/02 08:40:37;;;;;;;;;;;;;;;;;;5136217;27;20322;-78
2022/01/02 08:43:02;;;;;;;;;;;;;;;;;;5118583;27;19972;-78
2022/01/02 08:45:27;;;;;;;;;;;;;;;;;;5135750;27;20333;-77
2022/01/02 08:47:53;;;;;;;;;;;;;;;;;;5118417;27;20419;-78
2022/01/02 08:50:18;;;;;;;;;;;;;;;;;;5118711;27;20348;-77
2022/01/02 08:52:43;;;;;;;;;;;;;;;;;;5136824;27;19969;-78
2022/01/02 08:55:09;;;;;;;;;;;;;;;;;;5117981;27;19938;-77
2022/01/02 08:57:34;;;;;;;;;;;;;;;;;;5136691;27;20006;-77
2022/01/02 09:00:00;;;;;;;;;;;;;;;;;;5125225;27;19908;-78
2022/01/02 09:02:25;;;;;;;;;;;;;;;;;;5120365;27;19977;-77
2022/01/02 09:04:50;;;;;;;;;;;;;;;;;;5135364;27;19964;-78
2022/01/02 09:07:16;;;;;;;;;;;;;;;;;;5135116;27;19916;-77
2022/01/02 09:09:41;;;;;;;;;;;;;;;;;;5134818;27;19915;-77
2022/01/02 09:12:07;;;;;;;;;;;;;;;;;;5136363;27;19968;-79
2022/01/02 09:14:32;;;;;;;;;;;;;;;;;;5135537;27;19919;-76
2022/01/02 09:16:58;;;;;;;;;;;;;;;;;;5135730;27;20209;-77
2022/01/02 09:19:23;;;;;;;;;;;;;;;;;;5135897;27;19919;-76
2022/01/02 09:21:49;;;;;;;;;;;;;;;;;;5137390;27;19918;-77
2022/01/02 09:24:14;;;;;;;;;;;;;;;;;;5135583;27;20321;-78
2022/01/02 09:26:39;;;;;;;;;;;;;;;;;;5134889;27;20348;-76
2022/01/02 09:29:05;;;;;;;;;;;;;;;;;;5134795;27;20329;-77
2022/01/02 09:31:30;;;;;;;;;;;;;;;;;;5135116;27;20014;-77
2022/01/02 09:33:55;;;;;;;;;;;;;;;;;;5136025;27;19919;-77
2022/01/02 09:36:21;;;;;;;;;;;;;;;;;;5134755;27;19923;-78
2022/01/02 09:38:47;;;;;;;;;;;;;;;;;;5117193;27;19998;-78
2022/01/02 09:41:13;;;;;;;;;;;;;;;;;;5136584;27;19996;-77
2022/01/02 09:43:38;;;;;;;;;;;;;;;;;;5135636;27;20350;-77
2022/01/02 09:46:03;;;;;;;;;;;;;;;;;;5134623;27;20029;-78
2022/01/02 09:48:29;;;;;;;;;;;;;;;;;;5134643;27;19916;-78
2022/01/02 09:50:54;;;;;;;;;;;;;;;;;;5134584;27;20367;-77
2022/01/02 09:53:20;;;;;;;;;;;;;;;;;;5117634;27;19912;-77
2022/01/02 09:55:45;;;;;;;;;;;;;;;;;;5135840;27;19964;-77
2022/01/02 09:58:12;;;;;;;;;;;;;;;;;;5135751;27;20329;-78
2022/01/02 10:00:43;;;;;;;;;;;;;;;;;;5117596;27;19962;-77
2022/01/02 10:03:09;;;;;;;;;;;;;;;;;;5141946;27;19933;-77
2022/01/02 10:06:07;;;;;;;;;;;;;;;;;;5134789;27;20010;-77
2022/01/02 10:08:36;;;;;;;;;;;;;;;;;;5101001;27;19915;-77
2022/01/02 10:11:16;;;;;;;;;;;;;;;;;;5134372;28;20002;-77
2022/01/02 10:13:44;;;;;;;;;;;;;;;;;;5117536;28;19972;-78
2022/01/02 10:16:29;;;;;;;;;;;;;;;;;;5134542;28;20324;-78
2022/01/02 10:18:55;;;;;;;;;;;;;;;;;;5134356;28;19916;-77
2022/01/02 10:21:34;;;;;;;;;;;;;;;;;;5134026;28;19939;-78
2022/01/02 10:24:09;;;;;;;;;;;;;;;;;;5141676;28;19900;-78
2022/01/02 10:26:34;;;;;;;;;;;;;;;;;;5136759;27;19963;-78
2022/01/02 10:29:02;;;;;;;;;;;;;;;;;;5137144;27;20225;-78
2022/01/02 10:31:27;;;;;;;;;;;;;;;;;;5138640;27;19920;-78
2022/01/02 10:33:54;;;;;;;;;;;;;;;;;;5138880;27;20487;-79
2022/01/02 10:36:28;;;;;;;;;;;;;;;;;;5138329;27;19915;-78
2022/01/02 10:39:14;;;;;;;;;;;;;;;;;;5139763;27;19916;-78
2022/01/02 10:41:40;;;;;;;;;;;;;;;;;;5138387;27;19964;-78
2022/01/02 10:44:21;;;;;;;;;;;;;;;;;;5139001;27;19915;-79
2022/01/02 10:47:06;;;;;;;;;;;;;;;;;;5121904;27;19919;-77
2022/01/02 10:49:50;;;;;;;;;;;;;;;;;;5138011;27;19964;-79
2022/01/02 10:52:24;;;;;;;;;;;;;;;;;;5139352;27;20334;-78
2022/01/02 10:54:49;;;;;;;;;;;;;;;;;;5139679;27;19911;-78
2022/01/02 10:57:15;;;;;;;;;;;;;;;;;;5121325;27;20401;-78
2022/01/02 10:59:40;;;;;;;;;;;;;;;;;;5138133;27;19911;-78
2022/01/02 11:02:06;;;;;;;;;;;;;;;;;;5137791;27;19954;-78
2022/01/02 11:04:32;;;;;;;;;;;;;;;;;;5137788;27;20323;-79
2022/01/02 11:06:58;;;;;;;;;;;;;;;;;;5146096;27;19910;-79
2022/01/02 11:09:23;;;;;;;;;;;;;;;;;;5140865;27;19980;-78
2022/01/02 11:11:49;;;;;;;;;;;;;;;;;;5120952;27;20286;-78
2022/01/02 11:14:14;;;;;;;;;;;;;;;;;;5137669;27;19962;-78
2022/01/02 11:16:40;;;;;;;;;;;;;;;;;;5120892;27;19916;-78
2022/01/02 11:19:06;;;;;;;;;;;;;;;;;;5120333;27;19951;-78
2022/01/02 11:21:31;;;;;;;;;;;;;;;;;;5138615;27;19919;-78
2022/01/02 11:24:18;;;;;;;;;;;;;;;;;;5137567;27;19998;-78
2022/01/02 11:26:54;;;;;;;;;;;;;;;;;;5137732;27;19916;-78
2022/01/02 11:29:24;;;;;;;;;;;;;;;;;;5149692;27;19910;-78
2022/01/02 11:31:50;;;;;;;;;;;;;;;;;;5137910;27;19915;-78
2022/01/02 11:34:23;;;;;;;;;;;;;;;;;;5137577;27;19964;-76
2022/01/02 11:36:48;;;;;;;;;;;;;;;;;;5120457;27;19919;-76
2022/01/02 11:39:14;;;;;;;;;;;;;;;;;;5137359;27;19930;-77
2022/01/02 11:41:49;;;;;;;;;;;;;;;;;;5136681;27;20022;-76
2022/01/02 11:44:16;;;;;;;;;;;;;;;;;;5120616;27;19972;-77
2022/01/02 11:46:44;;;;;;;;;;;;;;;;;;5136983;27;19930;-77
2022/01/02 11:49:13;;;;;;;;;;;;;;;;;;5138065;27;19916;-77
2022/01/02 11:51:51;;;;;;;;;;;;;;;;;;5141245;27;19922;-77
2022/01/02 11:54:31;;;;;;;;;;;;;;;;;;5137452;27;19962;-77
2022/01/02 11:57:00;;;;;;;;;;;;;;;;;;5137270;27;20340;-76
2022/01/02 11:59:38;;;;;;;;;;;;;;;;;;5119678;27;20298;-77
2022/01/02 12:02:06;;;;;;;;;;;;;;;;;;5136362;27;20399;-76
2022/01/02 12:04:50;;;;;;;;;;;;;;;;;;5136803;27;19972;-77
2022/01/02 12:07:34;;;;;;;;;;;;;;;;;;5129304;27;19934;-76
2022/01/02 12:12:59;;;;;;;;;;;;;;;;;;5119834;28;19919;-76
2022/01/02 12:15:30;;;;;;;;;;;;;;;;;;5117089;28;19959;-78
2022/01/02 12:18:10;;;;;;;;;;;;;;;;;;5116493;28;20014;-77
2022/01/02 12:20:54;;;;;;;;;;;;;;;;;;5117186;28;19960;-77
2022/01/02 12:23:41;;;;;;;;;;;;;;;;;;5116973;28;19922;-78
2022/01/02 12:26:07;;;;;;;;;;;;;;;;;;5116003;28;20010;-78
2022/01/02 12:28:42;;;;;;;;;;;;;;;;;;5116963;28;19943;-77
2022/01/02 12:31:08;;;;;;;;;;;;;;;;;;5115521;28;19916;-77
2022/01/02 12:33:35;;;;;;;;;;;;;;;;;;5116362;28;19916;-77
2022/01/02 12:36:08;;;;;;;;;;;;;;;;;;5116237;28;19916;-78
2022/01/02 12:38:44;;;;;;;;;;;;;;;;;;5115799;28;19971;-77
2022/01/02 12:41:09;;;;;;;;;;;;;;;;;;5116722;28;19999;-77
2022/01/02 12:43:34;;;;;;;;;;;;;;;;;;5115578;28;19954;-77
2022/01/02 12:46:00;;;;;;;;;;;;;;;;;;5116386;28;19920;-77
2022/01/02 12:48:32;;;;;;;;;;;;;;;;;;5115597;28;19916;-78
2022/01/02 12:51:10;;;;;;;;;;;;;;;;;;5116683;27;20052;-77
2022/01/02 12:53:35;;;;;;;;;;;;;;;;;;5115566;28;20275;-77
2022/01/02 12:56:00;;;;;;;;;;;;;;;;;;5122627;28;19922;-78
2022/01/02 12:58:26;;;;;;;;;;;;;;;;;;5099168;28;20384;-78
2022/01/02 13:00:51;;;;;;;;;;;;;;;;;;5114972;28;20345;-78
2022/01/02 13:03:16;;;;;;;;;;;;;;;;;;5116341;28;20295;-78
2022/01/02 13:05:49;;;;;;;;;;;;;;;;;;5114867;28;19916;-77
2022/01/02 13:08:21;;;;;;;;;;;;;;;;;;5114992;28;19954;-78
2022/01/02 13:10:46;;;;;;;;;;;;;;;;;;5114952;28;20355;-77
2022/01/02 13:13:11;;;;;;;;;;;;;;;;;;5115026;28;19916;-78
2022/01/02 13:15:37;;;;;;;;;;;;;;;;;;5114542;28;19916;-78
2022/01/02 13:18:08;;;;;;;;;;;;;;;;;;5117244;28;20002;-78
2022/01/02 13:20:34;;;;;;;;;;;;;;;;;;5115885;28;19916;-77
2022/01/02 13:22:59;;;;;;;;;;;;;;;;;;5114829;28;19958;-76
2022/01/02 13:25:25;;;;;;;;;;;;;;;;;;5116007;28;20287;-76
2022/01/02 13:27:52;;;;;;;;;;;;;;;;;;5116044;28;20332;-77
2022/01/02 13:30:18;;;;;;;;;;;;;;;;;;5114507;28;19955;-77
2022/01/02 13:32:44;;;;;;;;;;;;;;;;;;5122984;27;19915;-78
2022/01/02 13:35:11;;;;;;;;;;;;;;;;;;5133815;27;20006;-76
2022/01/02 13:37:37;;;;;;;;;;;;;;;;;;5133548;27;19979;-76
2022/01/02 13:40:03;;;;;;;;;;;;;;;;;;5143332;27;19928;-77
2022/01/02 13:42:36;;;;;;;;;;;;;;;;;;5135253;27;19939;-77
2022/01/02 13:45:11;;;;;;;;;;;;;;;;;;5117921;27;20002;-78
2022/01/02 13:47:37;;;;;;;;;;;;;;;;;;5134804;27;19916;-77
2022/01/02 13:50:02;;;;;;;;;;;;;;;;;;5117572;27;19930;-78
2022/01/02 13:52:28;;;;;;;;;;;;;;;;;;5117791;27;19930;-78
2022/01/02 13:55:09;;;;;;;;;;;;;;;;;;5136076;27;19926;-77
2022/01/02 13:57:34;;;;;;;;;;;;;;;;;;5134939;27;20259;-76
2022/01/02 14:00:16;;;;;;;;;;;;;;;;;;5136035;27;19956;-77
2022/01/02 14:02:41;;;;;;;;;;;;;;;;;;5141632;27;19923;-78
2022/01/02 14:05:06;;;;;;;;;;;;;;;;;;5134512;27;19916;-77
2022/01/02 14:07:34;;;;;;;;;;;;;;;;;;5134849;27;19915;-77
2022/01/02 14:10:03;;;;;;;;;;;;;;;;;;5134610;28;19922;-77
2022/01/02 14:12:30;;;;;;;;;;;;;;;;;;5134345;28;19911;-77
2022/01/02 14:15:12;;;;;;;;;;;;;;;;;;5134653;28;19916;-78
2022/01/02 14:17:45;;;;;;;;;;;;;;;;;;5119621;28;19919;-78
2022/01/02 14:20:11;;;;;;;;;;;;;;;;;;5134563;28;19922;-78
2022/01/02 14:22:36;;;;;;;;;;;;;;;;;;5137683;28;19998;-77
2022/01/02 14:25:03;;;;;;;;;;;;;;;;;;5141653;27;19915;-77
2022/01/02 14:27:28;;;;;;;;;;;;;;;;;;5135674;27;20527;-77
2022/01/02 14:29:54;;;;;;;;;;;;;;;;;;5135666;27;19972;-77
2022/01/02 14:32:19;;;;;;;;;;;;;;;;;;5135618;27;20321;-77
2022/01/02 14:34:45;;;;;;;;;;;;;;;;;;5134387;28;19923;-77
2022/01/02 14:37:11;;;;;;;;;;;;;;;;;;5134314;28;19916;-77
2022/01/02 14:39:36;;;;;;;;;;;;;;;;;;5117076;28;20290;-78
2022/01/02 14:42:02;;;;;;;;;;;;;;;;;;5135225;27;19915;-78
2022/01/02 14:44:27;;;;;;;;;;;;;;;;;;5137149;28;19944;-79
2022/01/02 14:46:52;;;;;;;;;;;;;;;;;;5141777;28;20009;-77
2022/01/02 14:49:18;;;;;;;;;;;;;;;;;;5135987;27;20336;-77
2022/01/02 14:51:43;;;;;;;;;;;;;;;;;;5134200;28;19923;-77
2022/01/02 14:54:08;;;;;;;;;;;;;;;;;;5135541;27;19915;-77
2022/01/02 14:56:34;;;;;;;;;;;;;;;;;;5133899;28;20316;-77
2022/01/02 14:58:59;;;;;;;;;;;;;;;;;;5134180;28;19947;-78
2022/01/02 15:01:25;;;;;;;;;;;;;;;;;;5097925;28;19926;-77
2022/01/02 15:03:50;;;;;;;;;;;;;;;;;;5093594;28;20227;-78
2022/01/02 15:06:16;;;;;;;;;;;;;;;;;;5079211;28;19916;-78
2022/01/02 15:08:41;;;;;;;;;;;;;;;;;;5088426;28;19952;-78
2022/01/02 15:11:06;;;;;;;;;;;;;;;;;;5076397;28;19916;-78
2022/01/02 15:13:32;;;;;;;;;;;;;;;;;;5093582;28;19923;-78
2022/01/02 15:15:58;;;;;;;;;;;;;;;;;;5094392;28;20259;-78
2022/01/02 15:18:23;;;;;;;;;;;;;;;;;;5098130;28;19923;-78
2022/01/02 15:20:48;;;;;;;;;;;;;;;;;;5096844;28;19981;-78
2022/01/02 15:23:14;;;;;;;;;;;;;;;;;;5096881;28;19998;-78
2022/01/02 15:25:39;;;;;;;;;;;;;;;;;;5096303;28;19923;-78
2022/01/02 15:28:04;;;;;;;;;;;;;;;;;;5096984;28;19916;-78
2022/01/02 15:30:30;;;;;;;;;;;;;;;;;;5102281;28;20300;-77
2022/01/02 15:32:55;;;;;;;;;;;;;;;;;;5096598;28;19938;-76
2022/01/02 15:35:20;;;;;;;;;;;;;;;;;;5096492;28;20375;-77
2022/01/02 15:37:49;;;;;;;;;;;;;;;;;;5096519;28;19942;-77
2022/01/02 15:40:14;;;;;;;;;;;;;;;;;;5096425;28;19923;-77
2022/01/02 15:42:40;;;;;;;;;;;;;;;;;;5096407;28;20292;-77
2022/01/02 15:45:05;;;;;;;;;;;;;;;;;;5096405;28;20337;-77
2022/01/02 15:47:31;;;;;;;;;;;;;;;;;;5096350;28;19916;-77
2022/01/02 15:49:56;;;;;;;;;;;;;;;;;;5107626;28;19923;-77
2022/01/02 15:52:22;;;;;;;;;;;;;;;;;;5079807;28;19954;-79
2022/01/02 15:54:47;;;;;;;;;;;;;;;;;;5079386;28;19912;-77
2022/01/02 15:57:12;;;;;;;;;;;;;;;;;;5097338;28;19916;-79
2022/01/02 15:59:38;;;;;;;;;;;;;;;;;;5097305;28;19916;-77
2022/01/02 16:02:03;;;;;;;;;;;;;;;;;;5095993;28;19956;-78
2022/01/02 16:04:28;;;;;;;;;;;;;;;;;;5097251;28;20393;-76
2022/01/02 16:06:54;;;;;;;;;;;;;;;;;;5096944;28;19966;-76
2022/01/02 16:09:19;;;;;;;;;;;;;;;;;;5095562;28;19974;-77
2022/01/02 16:11:44;;;;;;;;;;;;;;;;;;5102759;28;19923;-76
2022/01/02 16:14:10;;;;;;;;;;;;;;;;;;5096124;28;20005;-76
2022/01/02 16:16:35;;;;;;;;;;;;;;;;;;5095933;28;19915;-79
2022/01/02 16:19:01;;;;;;;;;;;;;;;;;;5095419;28;20257;-75
2022/01/02 16:21:26;;;;;;;;;;;;;;;;;;5095497;28;20293;-78
2022/01/02 16:23:54;;;;;;;;;;;;;;;;;;5095101;28;20317;-79
2022/01/02 16:26:20;;;;;;;;;;;;;;;;;;5095540;28;19916;-79
2022/01/02 16:28:45;;;;;;;;;;;;;;;;;;5096425;28;20269;-78
2022/01/02 16:31:11;;;;;;;;;;;;;;;;;;5078530;28;19947;-78
2022/01/02 16:33:36;;;;;;;;;;;;;;;;;;5102525;28;19985;-78
2022/01/02 16:36:02;;;;;;;;;;;;;;;;;;5098464;28;19916;-78
2022/01/02 16:38:27;;;;;;;;;;;;;;;;;;5096168;28;19912;-77
2022/01/02 16:40:52;;;;;;;;;;;;;;;;;;5096352;28;19920;-78
2022/01/02 16:43:18;;;;;;;;;;;;;;;;;;5096309;28;20005;-78
2022/01/02 16:45:43;;;;;;;;;;;;;;;;;;5096288;28;19920;-78
2022/01/02 16:48:09;;;;;;;;;;;;;;;;;;5096315;28;19916;-78
2022/01/02 16:50:34;;;;;;;;;;;;;;;;;;5095282;28;19917;-78
2022/01/02 16:53:00;;;;;;;;;;;;;;;;;;5096029;28;20234;-77
2022/01/02 16:55:25;;;;;;;;;;;;;;;;;;5100233;28;19907;-78
2022/01/02 16:57:51;;;;;;;;;;;;;;;;;;5097952;28;19916;-78